sensor_id;sensor_type;location;lat;lon;timestamp;P1;durP1;ratioP1;P2;durP2;ratioP2
40623;SDS011;26325;48.594;11.650;2024-03-06T00:02:23;10.75;;;9.77;;
40623;SDS011;26325;48.594;11.650;2024-03-06T00:04:49;10.63;;;9.63;;
40623;SDS011;26325;48.594;11.650;2024-03-06T00:07:15;10.73;;;9.73;;
40623;SDS011;26325;48.594;11.650;2024-03-06T00:09:41;10.75;;;9.65;;
40623;SDS011;26325;48.594;11.650;2024-03-06T00:12:07;11.13;;;10.13;;
40623;SDS011;26325;48.594;11.650;2024-03-06T00:14:32;11.60;;;10.50;;
40623;SDS011;26325;48.594;11.650;2024-03-06T00:16:58;11.43;;;10.32;;
40623;SDS011;26325;48.594;11.650;2024-03-06T00:19:27;10.68;;;9.68;;
40623;SDS011;26325;48.594;11.650;2024-03-06T00:21:53;10.52;;;9.52;;
40623;SDS011;26325;48.594;11.650;2024-03-06T00:24:20;11.00;;;9.90;;
40623;SDS011;26325;48.594;11.650;2024-03-06T00:26:48;12.13;;;10.93;;
40623;SDS011;26325;48.594;11.650;2024-03-06T00:29:14;12.45;;;11.18;;
40623;SDS011;26325;48.594;11.650;2024-03-06T00:31:46;12.27;;;11.07;;
40623;SDS011;26325;48.594;11.650;2024-03-06T00:34:12;11.90;;;10.57;;
40623;SDS011;26325;48.594;11.650;2024-03-06T00:36:43;12.15;;;10.85;;
40623;SDS011;26325;48.594;11.650;2024-03-06T00:39:09;12.25;;;10.98;;
40623;SDS011;26325;48.594;11.650;2024-03-06T00:41:35;11.45;;;10.20;;
40623;SDS011;26325;48.594;11.650;2024-03-06T00:44:01;11.60;;;10.50;;
40623;SDS011;26325;48.594;11.650;2024-03-06T00:46:31;11.88;;;10.68;;
40623;SDS011;26325;48.594;11.650;2024-03-06T00:48:57;11.27;;;10.18;;
40623;SDS011;26325;48.594;11.650;2024-03-06T00:51:23;11.07;;;9.98;;
40623;SDS011;26325;48.594;11.650;2024-03-06T00:53:49;11.23;;;10.13;;
40623;SDS011;26325;48.594;11.650;2024-03-06T00:56:16;10.93;;;9.93;;
40623;SDS011;26325;48.594;11.650;2024-03-06T00:58:43;11.45;;;10.35;;
40623;SDS011;26325;48.594;11.650;2024-03-06T01:01:09;11.77;;;10.55;;
40623;SDS011;26325;48.594;11.650;2024-03-06T01:03:42;11.35;;;10.10;;
40623;SDS011;26325;48.594;11.650;2024-03-06T01:06:08;11.65;;;10.45;;
40623;SDS011;26325;48.594;11.650;2024-03-06T01:08:33;11.05;;;9.95;;
40623;SDS011;26325;48.594;11.650;2024-03-06T01:10:59;11.77;;;10.57;;
40623;SDS011;26325;48.594;11.650;2024-03-06T01:13:24;11.43;;;10.23;;
40623;SDS011;26325;48.594;11.650;2024-03-06T01:15:50;11.43;;;10.32;;
40623;SDS011;26325;48.594;11.650;2024-03-06T01:18:15;11.55;;;10.40;;
40623;SDS011;26325;48.594;11.650;2024-03-06T01:20:46;10.45;;;9.45;;
40623;SDS011;26325;48.594;11.650;2024-03-06T01:23:15;10.60;;;9.32;;
40623;SDS011;26325;48.594;11.650;2024-03-06T01:25:46;10.73;;;9.73;;
40623;SDS011;26325;48.594;11.650;2024-03-06T01:28:14;11.10;;;10.00;;
40623;SDS011;26325;48.594;11.650;2024-03-06T01:30:42;12.40;;;11.15;;
40623;SDS011;26325;48.594;11.650;2024-03-06T01:33:07;10.65;;;9.60;;
40623;SDS011;26325;48.594;11.650;2024-03-06T01:35:36;11.88;;;10.70;;
40623;SDS011;26325;48.594;11.650;2024-03-06T01:38:05;12.15;;;10.95;;
40623;SDS011;26325;48.594;11.650;2024-03-06T01:40:31;11.40;;;10.30;;
40623;SDS011;26325;48.594;11.650;2024-03-06T01:42:58;11.65;;;10.52;;
40623;SDS011;26325;48.594;11.650;2024-03-06T01:45:26;12.00;;;10.80;;
40623;SDS011;26325;48.594;11.650;2024-03-06T01:47:52;10.77;;;9.68;;
40623;SDS011;26325;48.594;11.650;2024-03-06T01:50:18;10.95;;;9.85;;
40623;SDS011;26325;48.594;11.650;2024-03-06T01:52:45;12.13;;;10.88;;
40623;SDS011;26325;48.594;11.650;2024-03-06T01:55:12;10.98;;;9.93;;
40623;SDS011;26325;48.594;11.650;2024-03-06T01:57:42;11.77;;;10.57;;
40623;SDS011;26325;48.594;11.650;2024-03-06T02:00:13;12.32;;;11.02;;
40623;SDS011;26325;48.594;11.650;2024-03-06T02:02:41;11.98;;;10.77;;
40623;SDS011;26325;48.594;11.650;2024-03-06T02:05:08;11.82;;;10.63;;
40623;SDS011;26325;48.594;11.650;2024-03-06T02:07:37;11.82;;;10.63;;
40623;SDS011;26325;48.594;11.650;2024-03-06T02:10:07;11.27;;;10.18;;
40623;SDS011;26325;48.594;11.650;2024-03-06T02:12:36;10.88;;;9.77;;
40623;SDS011;26325;48.594;11.650;2024-03-06T02:15:02;11.70;;;10.50;;
40623;SDS011;26325;48.594;11.650;2024-03-06T02:17:28;12.18;;;10.98;;
40623;SDS011;26325;48.594;11.650;2024-03-06T02:20:01;11.50;;;10.32;;
40623;SDS011;26325;48.594;11.650;2024-03-06T02:24:57;11.88;;;10.63;;
40623;SDS011;26325;48.594;11.650;2024-03-06T02:27:25;12.43;;;11.23;;
40623;SDS011;26325;48.594;11.650;2024-03-06T02:29:52;12.18;;;10.65;;
40623;SDS011;26325;48.594;11.650;2024-03-06T02:32:17;12.55;;;11.35;;
40623;SDS011;26325;48.594;11.650;2024-03-06T02:34:43;11.90;;;10.70;;
40623;SDS011;26325;48.594;11.650;2024-03-06T02:37:11;11.63;;;10.48;;
40623;SDS011;26325;48.594;11.650;2024-03-06T02:39:36;11.48;;;10.30;;
40623;SDS011;26325;48.594;11.650;2024-03-06T02:42:03;12.93;;;11.27;;
40623;SDS011;26325;48.594;11.650;2024-03-06T02:44:29;12.68;;;11.38;;
40623;SDS011;26325;48.594;11.650;2024-03-06T02:46:54;12.55;;;11.23;;
40623;SDS011;26325;48.594;11.650;2024-03-06T02:49:23;11.82;;;10.63;;
40623;SDS011;26325;48.594;11.650;2024-03-06T02:51:48;13.27;;;11.90;;
40623;SDS011;26325;48.594;11.650;2024-03-06T02:54:14;12.02;;;10.75;;
40623;SDS011;26325;48.594;11.650;2024-03-06T02:56:40;12.85;;;11.43;;
40623;SDS011;26325;48.594;11.650;2024-03-06T02:59:09;12.55;;;11.25;;
40623;SDS011;26325;48.594;11.650;2024-03-06T03:01:36;12.52;;;11.23;;
40623;SDS011;26325;48.594;11.650;2024-03-06T03:04:02;12.90;;;11.57;;
40623;SDS011;26325;48.594;11.650;2024-03-06T03:06:28;12.75;;;11.45;;
40623;SDS011;26325;48.594;11.650;2024-03-06T03:08:54;12.55;;;11.25;;
40623;SDS011;26325;48.594;11.650;2024-03-06T03:11:21;11.80;;;10.55;;
40623;SDS011;26325;48.594;11.650;2024-03-06T03:13:47;12.48;;;11.18;;
40623;SDS011;26325;48.594;11.650;2024-03-06T03:16:19;12.90;;;11.27;;
40623;SDS011;26325;48.594;11.650;2024-03-06T03:18:48;12.55;;;10.32;;
40623;SDS011;26325;48.594;11.650;2024-03-06T03:21:14;13.70;;;12.30;;
40623;SDS011;26325;48.594;11.650;2024-03-06T03:23:44;13.25;;;11.73;;
40623;SDS011;26325;48.594;11.650;2024-03-06T03:26:11;12.48;;;11.18;;
40623;SDS011;26325;48.594;11.650;2024-03-06T03:28:43;12.70;;;11.40;;
40623;SDS011;26325;48.594;11.650;2024-03-06T03:31:10;12.73;;;11.43;;
40623;SDS011;26325;48.594;11.650;2024-03-06T03:33:41;14.68;;;13.13;;
40623;SDS011;26325;48.594;11.650;2024-03-06T03:36:07;13.32;;;12.00;;
40623;SDS011;26325;48.594;11.650;2024-03-06T03:38:34;14.05;;;12.38;;
40623;SDS011;26325;48.594;11.650;2024-03-06T03:41:07;13.32;;;11.93;;
40623;SDS011;26325;48.594;11.650;2024-03-06T03:43:51;12.63;;;11.32;;
40623;SDS011;26325;48.594;11.650;2024-03-06T03:46:17;13.25;;;11.57;;
40623;SDS011;26325;48.594;11.650;2024-03-06T03:51:09;12.23;;;10.93;;
40623;SDS011;26325;48.594;11.650;2024-03-06T03:53:37;12.55;;;11.25;;
40623;SDS011;26325;48.594;11.650;2024-03-06T03:56:04;12.00;;;10.80;;
40623;SDS011;26325;48.594;11.650;2024-03-06T03:58:38;13.18;;;11.55;;
40623;SDS011;26325;48.594;11.650;2024-03-06T04:01:03;12.27;;;10.68;;
40623;SDS011;26325;48.594;11.650;2024-03-06T04:03:34;12.68;;;11.38;;
40623;SDS011;26325;48.594;11.650;2024-03-06T04:05:59;12.05;;;10.85;;
40623;SDS011;26325;48.594;11.650;2024-03-06T04:08:25;12.07;;;10.82;;
40623;SDS011;26325;48.594;11.650;2024-03-06T04:10:51;11.90;;;10.70;;
40623;SDS011;26325;48.594;11.650;2024-03-06T04:13:18;11.75;;;10.55;;
40623;SDS011;26325;48.594;11.650;2024-03-06T04:15:46;12.88;;;11.55;;
40623;SDS011;26325;48.594;11.650;2024-03-06T04:18:14;12.13;;;10.70;;
40623;SDS011;26325;48.594;11.650;2024-03-06T04:20:40;12.82;;;11.52;;
40623;SDS011;26325;48.594;11.650;2024-03-06T04:23:07;12.82;;;11.52;;
40623;SDS011;26325;48.594;11.650;2024-03-06T04:25:35;13.10;;;11.68;;
40623;SDS011;26325;48.594;11.650;2024-03-06T04:28:03;12.13;;;10.82;;
40623;SDS011;26325;48.594;11.650;2024-03-06T04:30:34;12.15;;;10.65;;
40623;SDS011;26325;48.594;11.650;2024-03-06T04:33:00;13.02;;;10.90;;
40623;SDS011;26325;48.594;11.650;2024-03-06T04:35:26;12.02;;;10.82;;
40623;SDS011;26325;48.594;11.650;2024-03-06T04:37:51;12.32;;;11.07;;
40623;SDS011;26325;48.594;11.650;2024-03-06T04:40:17;11.13;;;10.02;;
40623;SDS011;26325;48.594;11.650;2024-03-06T04:42:47;13.38;;;11.98;;
40623;SDS011;26325;48.594;11.650;2024-03-06T04:45:16;13.15;;;11.75;;
40623;SDS011;26325;48.594;11.650;2024-03-06T04:47:43;11.95;;;10.32;;
40623;SDS011;26325;48.594;11.650;2024-03-06T04:50:12;13.43;;;10.80;;
40623;SDS011;26325;48.594;11.650;2024-03-06T04:52:42;12.98;;;11.50;;
40623;SDS011;26325;48.594;11.650;2024-03-06T04:55:10;12.93;;;10.80;;
40623;SDS011;26325;48.594;11.650;2024-03-06T04:57:37;11.82;;;10.63;;
40623;SDS011;26325;48.594;11.650;2024-03-06T05:00:03;12.23;;;10.98;;
40623;SDS011;26325;48.594;11.650;2024-03-06T05:02:31;13.13;;;11.73;;
40623;SDS011;26325;48.594;11.650;2024-03-06T05:05:02;12.00;;;10.50;;
40623;SDS011;26325;48.594;11.650;2024-03-06T05:07:29;13.80;;;11.20;;
40623;SDS011;26325;48.594;11.650;2024-03-06T05:09:56;12.73;;;11.30;;
40623;SDS011;26325;48.594;11.650;2024-03-06T05:12:23;12.38;;;11.07;;
40623;SDS011;26325;48.594;11.650;2024-03-06T05:14:50;11.63;;;10.43;;
40623;SDS011;26325;48.594;11.650;2024-03-06T05:17:16;12.63;;;10.73;;
40623;SDS011;26325;48.594;11.650;2024-03-06T05:19:44;12.50;;;11.18;;
40623;SDS011;26325;48.594;11.650;2024-03-06T05:22:10;13.15;;;11.55;;
40623;SDS011;26325;48.594;11.650;2024-03-06T05:24:42;12.40;;;10.70;;
40623;SDS011;26325;48.594;11.650;2024-03-06T05:27:09;12.45;;;11.07;;
40623;SDS011;26325;48.594;11.650;2024-03-06T05:29:36;13.32;;;11.45;;
40623;SDS011;26325;48.594;11.650;2024-03-06T05:32:05;13.40;;;11.57;;
40623;SDS011;26325;48.594;11.650;2024-03-06T05:34:32;13.40;;;12.00;;
40623;SDS011;26325;48.594;11.650;2024-03-06T05:36:59;13.43;;;12.02;;
40623;SDS011;26325;48.594;11.650;2024-03-06T05:39:35;14.68;;;11.68;;
40623;SDS011;26325;48.594;11.650;2024-03-06T05:42:03;15.35;;;12.40;;
40623;SDS011;26325;48.594;11.650;2024-03-06T05:44:33;13.77;;;11.32;;
40623;SDS011;26325;48.594;11.650;2024-03-06T05:47:02;15.00;;;12.18;;
40623;SDS011;26325;48.594;11.650;2024-03-06T05:49:30;16.35;;;13.40;;
40623;SDS011;26325;48.594;11.650;2024-03-06T05:51:58;17.23;;;13.57;;
40623;SDS011;26325;48.594;11.650;2024-03-06T05:54:25;13.50;;;12.02;;
40623;SDS011;26325;48.594;11.650;2024-03-06T05:56:52;14.70;;;13.10;;
40623;SDS011;26325;48.594;11.650;2024-03-06T05:59:20;14.85;;;12.68;;
40623;SDS011;26325;48.594;11.650;2024-03-06T06:01:46;15.38;;;13.27;;
40623;SDS011;26325;48.594;11.650;2024-03-06T06:04:14;14.80;;;13.07;;
40623;SDS011;26325;48.594;11.650;2024-03-06T06:06:40;15.80;;;13.70;;
40623;SDS011;26325;48.594;11.650;2024-03-06T06:09:06;15.27;;;13.68;;
40623;SDS011;26325;48.594;11.650;2024-03-06T06:11:33;15.23;;;13.02;;
40623;SDS011;26325;48.594;11.650;2024-03-06T06:14:01;16.08;;;13.10;;
40623;SDS011;26325;48.594;11.650;2024-03-06T06:16:39;16.55;;;13.55;;
40623;SDS011;26325;48.594;11.650;2024-03-06T06:19:07;17.13;;;14.02;;
40623;SDS011;26325;48.594;11.650;2024-03-06T06:21:33;17.17;;;13.10;;
40623;SDS011;26325;48.594;11.650;2024-03-06T06:24:00;15.88;;;13.52;;
40623;SDS011;26325;48.594;11.650;2024-03-06T06:26:27;15.75;;;13.27;;
40623;SDS011;26325;48.594;11.650;2024-03-06T06:28:54;15.23;;;12.65;;
40623;SDS011;26325;48.594;11.650;2024-03-06T06:31:23;13.20;;;11.80;;
40623;SDS011;26325;48.594;11.650;2024-03-06T06:33:50;15.32;;;13.18;;
40623;SDS011;26325;48.594;11.650;2024-03-06T06:36:17;16.70;;;14.20;;
40623;SDS011;26325;48.594;11.650;2024-03-06T06:38:43;16.50;;;13.98;;
40623;SDS011;26325;48.594;11.650;2024-03-06T06:41:10;14.80;;;13.20;;
40623;SDS011;26325;48.594;11.650;2024-03-06T06:43:35;15.88;;;13.00;;
40623;SDS011;26325;48.594;11.650;2024-03-06T06:46:01;16.27;;;13.23;;
40623;SDS011;26325;48.594;11.650;2024-03-06T06:48:30;16.52;;;14.45;;
40623;SDS011;26325;48.594;11.650;2024-03-06T06:50:59;19.15;;;14.18;;
40623;SDS011;26325;48.594;11.650;2024-03-06T06:53:28;16.33;;;13.00;;
40623;SDS011;26325;48.594;11.650;2024-03-06T06:55:55;13.82;;;12.38;;
40623;SDS011;26325;48.594;11.650;2024-03-06T06:58:20;15.20;;;12.52;;
40623;SDS011;26325;48.594;11.650;2024-03-06T07:00:48;14.25;;;12.15;;
40623;SDS011;26325;48.594;11.650;2024-03-06T07:03:14;15.40;;;13.40;;
40623;SDS011;26325;48.594;11.650;2024-03-06T07:05:42;15.57;;;13.68;;
40623;SDS011;26325;48.594;11.650;2024-03-06T07:08:12;16.50;;;13.50;;
40623;SDS011;26325;48.594;11.650;2024-03-06T07:10:39;16.50;;;14.20;;
40623;SDS011;26325;48.594;11.650;2024-03-06T07:13:04;18.90;;;15.43;;
40623;SDS011;26325;48.594;11.650;2024-03-06T07:15:31;19.85;;;15.02;;
40623;SDS011;26325;48.594;11.650;2024-03-06T07:17:59;18.67;;;15.52;;
40623;SDS011;26325;48.594;11.650;2024-03-06T07:20:24;17.20;;;14.20;;
40623;SDS011;26325;48.594;11.650;2024-03-06T07:22:50;18.13;;;14.45;;
40623;SDS011;26325;48.594;11.650;2024-03-06T07:25:17;18.45;;;14.77;;
40623;SDS011;26325;48.594;11.650;2024-03-06T07:27:43;17.90;;;15.38;;
40623;SDS011;26325;48.594;11.650;2024-03-06T07:30:09;17.60;;;14.60;;
40623;SDS011;26325;48.594;11.650;2024-03-06T07:32:36;18.23;;;14.85;;
40623;SDS011;26325;48.594;11.650;2024-03-06T07:35:01;17.02;;;14.55;;
40623;SDS011;26325;48.594;11.650;2024-03-06T07:37:27;17.98;;;15.35;;
40623;SDS011;26325;48.594;11.650;2024-03-06T07:39:52;16.35;;;13.73;;
40623;SDS011;26325;48.594;11.650;2024-03-06T07:42:20;18.58;;;14.13;;
40623;SDS011;26325;48.594;11.650;2024-03-06T07:44:46;16.48;;;13.93;;
40623;SDS011;26325;48.594;11.650;2024-03-06T07:47:12;16.45;;;14.15;;
40623;SDS011;26325;48.594;11.650;2024-03-06T07:49:39;16.33;;;14.13;;
40623;SDS011;26325;48.594;11.650;2024-03-06T07:52:05;16.02;;;13.10;;
40623;SDS011;26325;48.594;11.650;2024-03-06T07:54:33;15.32;;;12.95;;
40623;SDS011;26325;48.594;11.650;2024-03-06T07:59:39;18.40;;;15.70;;
40623;SDS011;26325;48.594;11.650;2024-03-06T08:02:05;17.40;;;15.30;;
40623;SDS011;26325;48.594;11.650;2024-03-06T08:04:31;16.52;;;13.80;;
40623;SDS011;26325;48.594;11.650;2024-03-06T08:06:57;20.67;;;16.25;;
40623;SDS011;26325;48.594;11.650;2024-03-06T08:09:23;18.17;;;14.45;;
40623;SDS011;26325;48.594;11.650;2024-03-06T08:11:51;18.02;;;14.85;;
40623;SDS011;26325;48.594;11.650;2024-03-06T08:14:19;18.40;;;14.85;;
40623;SDS011;26325;48.594;11.650;2024-03-06T08:16:45;19.42;;;16.33;;
40623;SDS011;26325;48.594;11.650;2024-03-06T08:19:11;19.45;;;15.05;;
40623;SDS011;26325;48.594;11.650;2024-03-06T08:21:38;19.98;;;16.48;;
40623;SDS011;26325;48.594;11.650;2024-03-06T08:24:03;19.35;;;15.32;;
40623;SDS011;26325;48.594;11.650;2024-03-06T08:26:29;17.95;;;15.07;;
40623;SDS011;26325;48.594;11.650;2024-03-06T08:28:54;17.73;;;14.27;;
40623;SDS011;26325;48.594;11.650;2024-03-06T08:31:20;22.25;;;17.13;;
40623;SDS011;26325;48.594;11.650;2024-03-06T08:33:48;17.45;;;14.40;;
40623;SDS011;26325;48.594;11.650;2024-03-06T08:36:13;17.83;;;15.48;;
40623;SDS011;26325;48.594;11.650;2024-03-06T08:38:39;17.52;;;15.50;;
40623;SDS011;26325;48.594;11.650;2024-03-06T08:41:06;17.70;;;15.38;;
40623;SDS011;26325;48.594;11.650;2024-03-06T08:43:31;18.40;;;16.13;;
40623;SDS011;26325;48.594;11.650;2024-03-06T08:45:57;20.08;;;16.77;;
40623;SDS011;26325;48.594;11.650;2024-03-06T08:48:23;20.00;;;16.90;;
40623;SDS011;26325;48.594;11.650;2024-03-06T08:53:16;19.08;;;15.45;;
40623;SDS011;26325;48.594;11.650;2024-03-06T08:55:42;19.58;;;16.92;;
40623;SDS011;26325;48.594;11.650;2024-03-06T08:58:07;19.08;;;16.40;;
40623;SDS011;26325;48.594;11.650;2024-03-06T09:00:34;20.67;;;18.00;;
40623;SDS011;26325;48.594;11.650;2024-03-06T09:03:00;20.48;;;16.90;;
40623;SDS011;26325;48.594;11.650;2024-03-06T09:05:25;20.10;;;16.10;;
40623;SDS011;26325;48.594;11.650;2024-03-06T09:07:51;16.48;;;14.40;;
40623;SDS011;26325;48.594;11.650;2024-03-06T09:10:17;19.13;;;15.48;;
40623;SDS011;26325;48.594;11.650;2024-03-06T09:12:44;20.40;;;17.27;;
40623;SDS011;26325;48.594;11.650;2024-03-06T09:15:11;17.45;;;15.45;;
40623;SDS011;26325;48.594;11.650;2024-03-06T09:17:43;21.33;;;17.20;;
40623;SDS011;26325;48.594;11.650;2024-03-06T09:20:10;16.77;;;14.98;;
40623;SDS011;26325;48.594;11.650;2024-03-06T09:22:39;20.13;;;17.35;;
40623;SDS011;26325;48.594;11.650;2024-03-06T09:25:06;19.70;;;16.48;;
40623;SDS011;26325;48.594;11.650;2024-03-06T09:27:32;18.30;;;15.75;;
40623;SDS011;26325;48.594;11.650;2024-03-06T09:29:58;18.83;;;15.38;;
40623;SDS011;26325;48.594;11.650;2024-03-06T09:32:28;17.20;;;14.98;;
40623;SDS011;26325;48.594;11.650;2024-03-06T09:34:53;17.75;;;15.15;;
40623;SDS011;26325;48.594;11.650;2024-03-06T09:37:21;18.45;;;15.60;;
40623;SDS011;26325;48.594;11.650;2024-03-06T09:39:49;17.77;;;15.05;;
40623;SDS011;26325;48.594;11.650;2024-03-06T09:42:15;15.98;;;14.18;;
40623;SDS011;26325;48.594;11.650;2024-03-06T09:47:06;19.48;;;17.02;;
40623;SDS011;26325;48.594;11.650;2024-03-06T09:49:32;17.75;;;15.10;;
40623;SDS011;26325;48.594;11.650;2024-03-06T09:51:59;17.33;;;15.02;;
40623;SDS011;26325;48.594;11.650;2024-03-06T09:54:25;21.65;;;16.42;;
40623;SDS011;26325;48.594;11.650;2024-03-06T09:56:54;18.23;;;15.73;;
40623;SDS011;26325;48.594;11.650;2024-03-06T09:59:24;16.67;;;14.90;;
40623;SDS011;26325;48.594;11.650;2024-03-06T10:01:54;18.77;;;16.27;;
40623;SDS011;26325;48.594;11.650;2024-03-06T10:04:24;19.33;;;15.60;;
40623;SDS011;26325;48.594;11.650;2024-03-06T10:06:59;16.90;;;15.05;;
40623;SDS011;26325;48.594;11.650;2024-03-06T10:09:27;17.90;;;15.07;;
40623;SDS011;26325;48.594;11.650;2024-03-06T10:11:56;19.27;;;16.08;;
40623;SDS011;26325;48.594;11.650;2024-03-06T10:14:22;16.92;;;15.13;;
40623;SDS011;26325;48.594;11.650;2024-03-06T10:16:59;18.25;;;14.93;;
40623;SDS011;26325;48.594;11.650;2024-03-06T10:19:27;19.73;;;15.30;;
40623;SDS011;26325;48.594;11.650;2024-03-06T10:21:54;18.60;;;15.40;;
40623;SDS011;26325;48.594;11.650;2024-03-06T10:24:24;19.08;;;16.30;;
40623;SDS011;26325;48.594;11.650;2024-03-06T10:26:55;18.38;;;15.38;;
40623;SDS011;26325;48.594;11.650;2024-03-06T10:29:24;16.90;;;14.90;;
40623;SDS011;26325;48.594;11.650;2024-03-06T10:31:53;18.88;;;15.70;;
40623;SDS011;26325;48.594;11.650;2024-03-06T10:34:24;17.58;;;14.43;;
40623;SDS011;26325;48.594;11.650;2024-03-06T10:37:01;18.88;;;15.63;;
40623;SDS011;26325;48.594;11.650;2024-03-06T10:39:34;17.35;;;15.50;;
40623;SDS011;26325;48.594;11.650;2024-03-06T10:42:02;16.08;;;13.50;;
40623;SDS011;26325;48.594;11.650;2024-03-06T10:44:31;14.27;;;12.73;;
40623;SDS011;26325;48.594;11.650;2024-03-06T10:47:01;17.02;;;14.80;;
40623;SDS011;26325;48.594;11.650;2024-03-06T10:49:31;14.88;;;13.27;;
40623;SDS011;26325;48.594;11.650;2024-03-06T10:51:59;16.60;;;14.20;;
40623;SDS011;26325;48.594;11.650;2024-03-06T10:54:32;18.13;;;15.27;;
40623;SDS011;26325;48.594;11.650;2024-03-06T10:57:04;15.98;;;13.77;;
40623;SDS011;26325;48.594;11.650;2024-03-06T10:59:30;17.75;;;15.23;;
40623;SDS011;26325;48.594;11.650;2024-03-06T11:01:59;15.00;;;13.40;;
40623;SDS011;26325;48.594;11.650;2024-03-06T11:04:31;15.65;;;13.73;;
40623;SDS011;26325;48.594;11.650;2024-03-06T11:07:00;16.75;;;14.20;;
40623;SDS011;26325;48.594;11.650;2024-03-06T11:09:28;15.35;;;13.55;;
40623;SDS011;26325;48.594;11.650;2024-03-06T11:11:57;16.20;;;13.55;;
40623;SDS011;26325;48.594;11.650;2024-03-06T11:14:23;15.85;;;14.07;;
40623;SDS011;26325;48.594;11.650;2024-03-06T11:17:02;16.45;;;14.40;;
40623;SDS011;26325;48.594;11.650;2024-03-06T11:19:31;15.85;;;13.63;;
40623;SDS011;26325;48.594;11.650;2024-03-06T11:21:58;15.77;;;13.65;;
40623;SDS011;26325;48.594;11.650;2024-03-06T11:24:33;16.88;;;15.07;;
40623;SDS011;26325;48.594;11.650;2024-03-06T11:27:03;15.88;;;14.18;;
40623;SDS011;26325;48.594;11.650;2024-03-06T11:30:09;14.65;;;13.15;;
40623;SDS011;26325;48.594;11.650;2024-03-06T11:33:00;15.25;;;13.35;;
40623;SDS011;26325;48.594;11.650;2024-03-06T11:35:29;13.88;;;12.40;;
40623;SDS011;26325;48.594;11.650;2024-03-06T11:37:55;15.18;;;13.60;;
40623;SDS011;26325;48.594;11.650;2024-03-06T11:40:23;15.45;;;12.93;;
40623;SDS011;26325;48.594;11.650;2024-03-06T11:42:52;15.02;;;12.82;;
40623;SDS011;26325;48.594;11.650;2024-03-06T11:45:19;15.60;;;13.93;;
40623;SDS011;26325;48.594;11.650;2024-03-06T11:48:02;14.85;;;12.77;;
40623;SDS011;26325;48.594;11.650;2024-03-06T11:50:28;18.27;;;14.35;;
40623;SDS011;26325;48.594;11.650;2024-03-06T11:52:58;17.17;;;14.07;;
40623;SDS011;26325;48.594;11.650;2024-03-06T11:55:23;15.88;;;14.18;;
40623;SDS011;26325;48.594;11.650;2024-03-06T11:57:52;16.50;;;14.75;;
40623;SDS011;26325;48.594;11.650;2024-03-06T12:00:24;16.83;;;15.02;;
40623;SDS011;26325;48.594;11.650;2024-03-06T12:02:52;15.70;;;14.00;;
40623;SDS011;26325;48.594;11.650;2024-03-06T12:05:17;16.33;;;14.15;;
40623;SDS011;26325;48.594;11.650;2024-03-06T12:07:47;16.17;;;14.25;;
40623;SDS011;26325;48.594;11.650;2024-03-06T12:10:14;14.77;;;13.18;;
40623;SDS011;26325;48.594;11.650;2024-03-06T12:12:43;17.83;;;14.43;;
40623;SDS011;26325;48.594;11.650;2024-03-06T12:15:12;16.67;;;14.45;;
40623;SDS011;26325;48.594;11.650;2024-03-06T12:17:47;14.63;;;13.10;;
40623;SDS011;26325;48.594;11.650;2024-03-06T12:20:18;15.75;;;13.77;;
40623;SDS011;26325;48.594;11.650;2024-03-06T12:22:50;15.15;;;12.95;;
40623;SDS011;26325;48.594;11.650;2024-03-06T12:25:24;15.32;;;13.60;;
40623;SDS011;26325;48.594;11.650;2024-03-06T12:27:54;16.65;;;14.85;;
40623;SDS011;26325;48.594;11.650;2024-03-06T12:30:21;14.38;;;12.88;;
40623;SDS011;26325;48.594;11.650;2024-03-06T12:33:01;14.40;;;12.02;;
40623;SDS011;26325;48.594;11.650;2024-03-06T12:35:33;14.32;;;12.57;;
40623;SDS011;26325;48.594;11.650;2024-03-06T12:37:58;15.45;;;13.32;;
40623;SDS011;26325;48.594;11.650;2024-03-06T12:40:28;14.05;;;12.43;;
40623;SDS011;26325;48.594;11.650;2024-03-06T12:42:54;16.48;;;12.27;;
40623;SDS011;26325;48.594;11.650;2024-03-06T12:45:22;15.43;;;12.90;;
40623;SDS011;26325;48.594;11.650;2024-03-06T12:47:47;15.07;;;12.73;;
40623;SDS011;26325;48.594;11.650;2024-03-06T12:50:14;13.93;;;12.00;;
40623;SDS011;26325;48.594;11.650;2024-03-06T12:52:40;15.30;;;12.93;;
40623;SDS011;26325;48.594;11.650;2024-03-06T12:55:06;14.68;;;12.40;;
40623;SDS011;26325;48.594;11.650;2024-03-06T12:57:35;16.63;;;13.88;;
40623;SDS011;26325;48.594;11.650;2024-03-06T13:00:01;14.18;;;12.05;;
40623;SDS011;26325;48.594;11.650;2024-03-06T13:02:26;13.05;;;11.65;;
40623;SDS011;26325;48.594;11.650;2024-03-06T13:04:54;17.08;;;15.27;;
40623;SDS011;26325;48.594;11.650;2024-03-06T13:07:19;17.77;;;15.85;;
40623;SDS011;26325;48.594;11.650;2024-03-06T13:09:48;19.02;;;15.50;;
40623;SDS011;26325;48.594;11.650;2024-03-06T13:12:14;18.90;;;16.60;;
40623;SDS011;26325;48.594;11.650;2024-03-06T13:14:41;17.98;;;16.05;;
40623;SDS011;26325;48.594;11.650;2024-03-06T13:17:07;20.00;;;16.42;;
40623;SDS011;26325;48.594;11.650;2024-03-06T13:19:35;19.27;;;15.98;;
40623;SDS011;26325;48.594;11.650;2024-03-06T13:22:00;18.25;;;15.52;;
40623;SDS011;26325;48.594;11.650;2024-03-06T13:24:26;16.90;;;14.65;;
40623;SDS011;26325;48.594;11.650;2024-03-06T13:29:17;16.20;;;13.98;;
40623;SDS011;26325;48.594;11.650;2024-03-06T13:31:44;16.00;;;13.57;;
40623;SDS011;26325;48.594;11.650;2024-03-06T13:34:10;15.98;;;13.55;;
40623;SDS011;26325;48.594;11.650;2024-03-06T13:36:36;16.60;;;14.60;;
40623;SDS011;26325;48.594;11.650;2024-03-06T13:39:03;17.48;;;15.05;;
40623;SDS011;26325;48.594;11.650;2024-03-06T13:41:29;16.00;;;13.95;;
40623;SDS011;26325;48.594;11.650;2024-03-06T13:43:55;16.02;;;14.05;;
40623;SDS011;26325;48.594;11.650;2024-03-06T13:48:50;12.40;;;11.00;;
40623;SDS011;26325;48.594;11.650;2024-03-06T13:51:18;17.35;;;14.13;;
40623;SDS011;26325;48.594;11.650;2024-03-06T13:53:44;13.98;;;12.48;;
40623;SDS011;26325;48.594;11.650;2024-03-06T13:56:10;16.55;;;13.50;;
40623;SDS011;26325;48.594;11.650;2024-03-06T13:58:35;15.48;;;13.55;;
40623;SDS011;26325;48.594;11.650;2024-03-06T14:01:01;16.52;;;14.25;;
40623;SDS011;26325;48.594;11.650;2024-03-06T14:03:27;16.55;;;14.85;;
40623;SDS011;26325;48.594;11.650;2024-03-06T14:05:53;15.73;;;13.57;;
40623;SDS011;26325;48.594;11.650;2024-03-06T14:08:21;15.73;;;14.02;;
40623;SDS011;26325;48.594;11.650;2024-03-06T14:10:47;15.68;;;14.02;;
40623;SDS011;26325;48.594;11.650;2024-03-06T14:13:13;17.75;;;14.15;;
40623;SDS011;26325;48.594;11.650;2024-03-06T14:18:08;16.63;;;14.52;;
40623;SDS011;26325;48.594;11.650;2024-03-06T14:20:34;17.60;;;15.05;;
40623;SDS011;26325;48.594;11.650;2024-03-06T14:22:59;16.98;;;14.73;;
40623;SDS011;26325;48.594;11.650;2024-03-06T14:25:27;15.35;;;13.13;;
40623;SDS011;26325;48.594;11.650;2024-03-06T14:27:53;16.70;;;14.90;;
40623;SDS011;26325;48.594;11.650;2024-03-06T14:30:18;17.92;;;14.38;;
40623;SDS011;26325;48.594;11.650;2024-03-06T14:32:45;16.23;;;14.45;;